Time;durP1;ratioP1;P1;durP2;ratioP2;P2;SDS_P1;SDS_P2;PMS_P1;PMS_P2;Temp;Humidity;BMP_temperature;BMP_pressure;BME280_temperature;BME280_humidity;BME280_pressure;Samples;Min_cycle;Max_cycle;Signal;HPM_P1;HPM_P2
2022/08/11 00:01:08;;;;;;;2.58;1.73;;;;;;;-140.72;100.00;52192.00;5005008;28;20061;-67
2022/08/11 00:03:34;;;;;;;1.67;1.08;;;;;;;-140.72;100.00;52187.97;4996741;28;20034;-67
2022/08/11 00:06:01;;;;;;;1.60;1.20;;;;;;;-140.72;100.00;52194.03;4993876;28;20552;-67
2022/08/11 00:08:29;;;;;;;3.80;1.50;;;;;;;-140.72;100.00;52218.38;4993664;28;20030;-67
2022/08/11 00:11:06;;;;;;;2.40;1.40;;;;;;;-140.72;100.00;52208.25;4993896;28;20369;-66
2022/08/11 00:13:34;;;;;;;2.63;1.23;;;;;;;-140.72;100.00;52212.31;4993999;28;20022;-67
2022/08/11 00:16:01;;;;;;;1.50;1.17;;;;;;;-140.72;100.00;52238.69;5001102;28;20049;-68
2022/08/11 00:18:29;;;;;;;4.70;1.77;;;;;;;-140.72;100.00;52256.94;4993628;28;20026;-67
2022/08/11 00:20:58;;;;;;;2.22;1.70;;;;;;;-140.72;100.00;52261.00;5005584;28;20471;-67
2022/08/11 00:23:25;;;;;;;2.58;1.73;;;;;;;-140.72;100.00;52189.97;4993555;28;20053;-68
2022/08/11 00:25:52;;;;;;;3.50;1.42;;;;;;;-140.72;100.00;52222.44;4994308;28;20030;-67
2022/08/11 00:28:31;;;;;;;4.05;1.88;;;;;;;-140.72;100.00;52218.38;4994097;28;20080;-67
2022/08/11 00:31:00;;;;;;;;;;;;;;;-140.72;100.00;52216.34;4995367;28;20026;-67
2022/08/11 00:33:33;;;;;;;2.13;1.70;;;;;;;-140.72;100.00;52236.66;5013206;28;19913;-67
2022/08/11 00:36:01;;;;;;;2.67;1.45;;;;;;;-140.72;100.00;52200.13;4997869;28;20082;-67
2022/08/11 00:38:31;;;;;;;3.13;1.58;;;;;;;-140.72;100.00;52248.81;5007006;28;20040;-67
2022/08/11 00:41:10;;;;;;;2.42;1.38;;;;;;;-140.72;100.00;52210.28;5000639;28;20109;-67
2022/08/11 00:43:57;;;;;;;1.93;1.13;;;;;;;-140.72;100.00;52236.66;4997475;28;20026;-67
2022/08/11 00:46:25;;;;;;;1.70;1.23;;;;;;;-140.72;100.00;52271.16;4985360;28;20109;-67
2022/08/11 00:48:59;;;;;;;3.42;1.40;;;;;;;-140.72;100.00;52230.56;5010022;28;20033;-67
2022/08/11 00:51:54;;;;;;;2.22;1.30;;;;;;;-140.72;100.00;52228.53;4997237;28;20533;-68
2022/08/11 00:54:38;;;;;;;2.53;1.20;;;;;;;-140.72;100.00;52228.53;4991509;28;20030;-67
2022/08/11 00:57:21;;;;;;;3.33;1.40;;;;;;;-140.72;100.00;52269.13;5000827;28;20030;-67
2022/08/11 00:59:59;;;;;;;2.75;1.30;;;;;;;-140.72;100.00;52228.53;4997597;28;20030;-67
2022/08/11 01:02:53;;;;;;;1.95;1.35;;;;;;;-140.72;100.00;52248.81;4996733;28;20026;-67
2022/08/11 01:05:37;;;;;;;3.20;1.63;;;;;;;-140.72;100.00;52271.16;4996757;28;20506;-67
2022/08/11 01:08:35;;;;;;;3.33;1.70;;;;;;;-140.72;100.00;52246.78;4996773;28;20025;-66
2022/08/11 01:11:13;;;;;;;2.35;1.42;;;;;;;-140.72;100.00;52230.56;4997892;28;20542;-66
2022/08/11 01:14:06;;;;;;;1.88;1.58;;;;;;;-140.72;100.00;52244.78;4996889;28;20022;-66
2022/08/11 01:16:40;;;;;;;2.60;1.63;;;;;;;-140.72;100.00;52228.53;5011863;28;20026;-66
2022/08/11 01:23:05;;;;;;;2.63;1.70;;;;;;;-140.72;100.00;52228.53;4988683;28;20505;-66
2022/08/11 01:25:50;;;;;;;3.05;1.80;;;;;;;-140.72;100.00;52238.69;4996708;28;20065;-66
2022/08/11 01:28:24;;;;;;;2.40;1.55;;;;;;;-140.72;100.00;52248.81;4992129;28;20398;-66
2022/08/11 01:30:53;;;;;;;3.40;1.70;;;;;;;-140.72;100.00;52228.53;5008991;28;20076;-66
2022/08/11 01:33:37;;;;;;;3.55;1.75;;;;;;;-140.72;100.00;52281.28;5011740;28;20068;-66
2022/08/11 01:36:27;;;;;;;2.90;1.48;;;;;;;-140.72;100.00;52228.53;4995093;28;20058;-66
2022/08/11 01:39:27;;;;;;;2.47;1.70;;;;;;;-140.72;100.00;52275.19;4987319;28;20427;-66
2022/08/11 01:45:47;;;;;;;2.30;1.70;;;;;;;-140.72;100.00;52248.81;4989902;28;20457;-66
2022/08/11 01:48:19;;;;;;;3.90;1.70;;;;;;;-140.72;100.00;52246.78;5011242;28;20371;-66
2022/08/11 01:50:52;;;;;;;2.97;1.38;;;;;;;-140.72;100.00;52269.13;4995525;28;20121;-65
2022/08/11 01:53:36;;;;;;;2.03;1.27;;;;;;;-140.72;100.00;52248.81;4996133;28;20048;-66
2022/08/11 01:56:10;;;;;;;2.35;1.58;;;;;;;-140.72;100.00;52263.03;5006537;28;20540;-66
2022/08/11 01:58:45;;;;;;;2.40;1.30;;;;;;;-140.72;100.00;52261.00;5016904;28;20397;-66
2022/08/11 02:04:33;;;;;;;1.98;1.20;;;;;;;-140.72;100.00;52196.06;4995781;28;20088;-67
2022/08/11 02:07:48;;;;;;;2.40;1.80;;;;;;;-140.72;100.00;52283.31;4995800;28;20398;-66
2022/08/11 02:13:20;;;;;;;2.92;1.52;;;;;;;-140.72;100.00;52246.78;4995582;28;20038;-66
2022/08/11 02:16:22;;;;;;;2.40;1.50;;;;;;;-140.72;100.00;52305.63;4997821;28;20034;-67
2022/08/11 02:25:04;;;;;;;2.80;1.95;;;;;;;-140.72;100.00;52305.63;4995809;28;20173;-66
2022/08/11 02:27:46;;;;;;;2.53;1.42;;;;;;;-140.72;100.00;52301.59;4995954;28;20038;-67
2022/08/11 02:30:15;;;;;;;2.55;1.45;;;;;;;-140.72;100.00;52275.19;4994207;28;20034;-65
2022/08/11 02:35:44;;;;;;;2.10;1.40;;;;;;;-140.72;100.00;52254.91;4993560;28;20138;-67
2022/08/11 02:38:36;;;;;;;2.47;1.58;;;;;;;-140.72;100.00;52275.19;4994816;28;20073;-66
2022/08/11 02:44:35;;;;;;;1.33;1.10;;;;;;;-140.72;100.00;52261.00;4995442;28;20045;-66
2022/08/11 02:47:08;;;;;;;4.05;1.67;;;;;;;-140.72;100.00;52281.28;4994953;28;20112;-66
2022/08/11 02:50:00;;;;;;;2.40;1.73;;;;;;;-140.72;100.00;52311.72;5011449;28;20125;-66
2022/08/11 02:52:45;;;;;;;1.88;1.40;;;;;;;-140.72;100.00;52289.41;5002776;28;20038;-66
2022/08/11 02:55:24;;;;;;;1.48;1.13;;;;;;;-140.72;100.00;52273.19;4994269;28;20026;-66
2022/08/11 02:58:03;;;;;;;1.83;1.05;;;;;;;-140.72;100.00;52279.25;5001876;28;20033;-67
2022/08/11 03:00:41;;;;;;;2.35;1.50;;;;;;;-140.72;100.00;52309.69;4994815;28;20043;-67
2022/08/11 03:03:20;;;;;;;2.90;1.42;;;;;;;-140.72;100.00;52287.38;4994939;28;20569;-67
2022/08/11 03:06:18;;;;;;;4.97;1.60;;;;;;;-140.72;100.00;52309.69;4994878;28;20055;-66
2022/08/11 03:09:03;;;;;;;2.67;1.33;;;;;;;-140.72;100.00;52256.94;5009624;28;20549;-66
2022/08/11 03:18:26;;;;;;;2.42;1.67;;;;;;;-140.72;100.00;52301.59;4995094;28;20084;-66
2022/08/11 03:21:04;;;;;;;3.03;1.90;;;;;;;-140.72;100.00;52313.75;4993236;28;20042;-67
2022/08/11 03:23:47;;;;;;;1.98;1.40;;;;;;;-140.72;100.00;52263.03;4994456;28;20034;-67
2022/08/11 03:26:31;;;;;;;2.08;1.42;;;;;;;-140.72;100.00;52281.28;4994644;28;20033;-67
2022/08/11 03:29:22;;;;;;;2.13;1.60;;;;;;;-140.72;100.00;52261.00;4993020;28;20034;-66
2022/08/11 03:32:09;;;;;;;2.28;1.65;;;;;;;-140.72;100.00;52275.19;4990062;28;20026;-67
2022/08/11 03:34:38;;;;;;;3.35;2.00;;;;;;;-140.72;100.00;52269.13;4997804;28;20077;-66
2022/08/11 03:40:13;;;;;;;2.95;1.52;;;;;;;-140.72;100.00;52313.75;4994702;28;20041;-66
2022/08/11 03:42:38;;;;;;;3.63;1.92;;;;;;;-140.72;100.00;52297.53;4981719;28;20038;-66
2022/08/11 03:45:25;;;;;;;3.63;1.73;;;;;;;-140.72;100.00;52334.03;4993956;28;20400;-67
2022/08/11 03:48:13;;;;;;;2.78;1.50;;;;;;;-140.72;100.00;52295.50;4994072;28;20384;-67
2022/08/11 03:50:41;;;;;;;4.72;1.70;;;;;;;-140.72;100.00;52307.66;4992834;28;20030;-67
2022/08/11 03:53:06;;;;;;;3.65;1.58;;;;;;;-140.72;100.00;52297.53;4993918;28;20037;-66
2022/08/11 03:56:04;;;;;;;2.43;1.70;;;;;;;-140.72;100.00;52283.31;4993920;28;20034;-67
2022/08/11 03:58:32;;;;;;;2.20;1.65;;;;;;;-140.72;100.00;52338.09;4984041;28;20800;-67
2022/08/11 04:01:31;;;;;;;4.38;1.80;;;;;;;-140.72;100.00;52336.06;4992653;28;20426;-66
2022/08/11 04:04:20;;;;;;;2.17;1.30;;;;;;;-140.72;100.00;52297.53;4992890;28;20153;-67
2022/08/11 04:07:07;;;;;;;5.22;1.85;;;;;;;-140.72;100.00;52297.53;4993088;28;20038;-67
2022/08/11 04:09:32;;;;;;;3.95;1.48;;;;;;;-140.72;100.00;52321.88;4983350;28;20022;-67
2022/08/11 04:12:19;;;;;;;2.35;1.42;;;;;;;-140.72;100.00;52334.03;4993588;28;20378;-66
2022/08/11 04:18:16;;;;;;;3.00;1.52;;;;;;;-140.72;100.00;52299.56;4991273;28;20073;-69
2022/08/11 04:21:30;;;;;;;4.97;1.95;;;;;;;-140.72;100.00;52285.34;4970897;28;20485;-72
2022/08/11 04:24:07;;;;;;;5.03;2.05;;;;;;;-140.72;100.00;52305.63;4975202;28;20081;-69
2022/08/11 04:27:22;;;;;;;3.00;1.70;;;;;;;-140.72;100.00;52309.69;4986085;28;20058;-68
2022/08/11 04:30:06;;;;;;;2.33;1.80;;;;;;;-140.72;100.00;52313.75;4955460;28;20102;-70
2022/08/11 04:32:55;;;;;;;2.92;1.90;;;;;;;-140.72;100.00;52330.00;4971994;28;20030;-70
2022/08/11 04:35:42;;;;;;;2.60;1.67;;;;;;;-140.72;100.00;52309.69;4997032;28;20047;-69
2022/08/11 04:45:10;;;;;;;2.78;1.65;;;;;;;-140.72;100.00;52293.47;4972633;28;20035;-73
2022/08/11 05:03:13;;;;;;;6.13;1.88;;;;;;;-140.72;100.00;52295.50;4993271;28;20045;-73
2022/08/11 05:05:58;;;;;;;2.60;1.65;;;;;;;-140.72;100.00;52313.75;4984928;28;20027;-74
2022/08/11 05:08:35;;;;;;;3.35;1.83;;;;;;;-140.72;100.00;52340.13;4991544;28;20497;-74
2022/08/11 05:37:22;;;;;;;3.17;2.10;;;;;;;-140.72;100.00;52287.38;4996272;28;20994;-71
2022/08/11 05:56:54;;;;;;;3.30;2.33;;;;;;;-140.72;100.00;52240.72;4994897;28;20527;-68
2022/08/11 05:59:22;;;;;;;3.65;2.03;;;;;;;-140.72;100.00;52265.06;4996219;28;20029;-67
2022/08/11 06:01:48;;;;;;;4.07;2.60;;;;;;;-140.72;100.00;52283.31;4995324;28;20026;-67
2022/08/11 06:04:18;;;;;;;4.03;2.55;;;;;;;-140.72;100.00;52254.91;4994960;28;20037;-67
2022/08/11 06:06:51;;;;;;;;;;;;;;;-140.72;100.00;52271.16;5007404;28;20032;-67
2022/08/11 06:09:23;;;;;;;4.47;2.25;;;;;;;-140.72;100.00;52285.34;4996239;28;19917;-67
2022/08/11 06:11:49;;;;;;;3.80;2.03;;;;;;;-140.72;100.00;52261.00;4995177;28;20074;-67
2022/08/11 06:14:15;;;;;;;2.88;2.08;;;;;;;-140.72;100.00;52305.63;5001272;28;20478;-66
2022/08/11 06:16:41;;;;;;;2.50;2.13;;;;;;;-140.72;100.00;52297.53;4994092;28;20023;-66
2022/08/11 06:19:09;;;;;;;2.65;1.95;;;;;;;-140.72;100.00;52277.22;4995552;28;20041;-66
2022/08/11 06:21:35;;;;;;;4.38;2.03;;;;;;;-140.72;100.00;52265.06;4995977;28;20022;-66
2022/08/11 06:24:10;;;;;;;7.68;2.17;;;;;;;-140.72;100.00;52265.06;4995566;28;20497;-66
2022/08/11 06:26:37;;;;;;;3.25;2.60;;;;;;;-140.72;100.00;52234.63;4995617;28;20114;-66
2022/08/11 06:29:04;;;;;;;4.78;2.25;;;;;;;-140.72;100.00;52246.78;4992582;28;20030;-69
2022/08/11 06:31:32;;;;;;;2.75;1.80;;;;;;;-140.72;100.00;52285.34;4993825;28;20316;-70
2022/08/11 06:34:10;;;;;;;2.17;1.48;;;;;;;-140.72;100.00;52242.75;4995290;28;20042;-69
2022/08/11 06:36:52;;;;;;;2.45;1.65;;;;;;;-140.72;100.00;52256.94;4996879;28;20042;-68
2022/08/11 06:39:42;;;;;;;1.92;1.33;;;;;;;-140.72;100.00;52244.78;5011613;28;20040;-69
2022/08/11 06:42:11;;;;;;;;;;;;;;;-140.72;100.00;52228.53;5007896;28;20032;-68
2022/08/11 06:44:57;;;;;;;2.33;1.63;;;;;;;-140.72;100.00;52250.84;4995690;28;19922;-69
2022/08/11 06:47:23;;;;;;;2.58;1.60;;;;;;;-140.72;100.00;52224.47;4995394;28;20029;-68
2022/08/11 06:52:37;;;;;;;2.95;1.70;;;;;;;-140.72;100.00;52224.47;4995046;28;20498;-70
2022/08/11 06:55:14;;;;;;;;;;;;;;;-140.72;100.00;52222.44;5006414;28;20389;-70
2022/08/11 07:00:48;;;;;;;3.58;1.80;;;;;;;-140.72;100.00;52220.41;4995040;28;20089;-69
2022/08/11 07:03:18;;;;;;;1.75;1.33;;;;;;;-140.72;100.00;52246.78;4995432;28;20065;-68
2022/08/11 07:05:48;;;;;;;2.33;1.48;;;;;;;-140.72;100.00;52171.72;4982189;28;20026;-68
2022/08/11 07:28:58;;;;;;;3.13;1.80;;;;;;;-140.72;100.00;52194.03;4993910;28;20401;-68
2022/08/11 07:31:36;;;;;;;3.20;1.70;;;;;;;-140.72;100.00;52216.34;4994107;28;20101;-69
2022/08/11 07:34:12;;;;;;;2.42;1.80;;;;;;;-140.72;100.00;52204.19;4993948;28;20360;-67
2022/08/11 07:36:41;;;;;;;3.20;2.05;;;;;;;-140.72;100.00;52212.31;4994049;28;20026;-68
2022/08/11 07:39:14;;;;;;;2.70;1.80;;;;;;;-140.72;100.00;52196.06;5008857;28;20030;-69
2022/08/11 07:41:40;;;;;;;2.60;1.60;;;;;;;-140.72;100.00;52198.09;4993650;28;20039;-69
2022/08/11 07:44:10;;;;;;;2.55;1.60;;;;;;;-140.72;100.00;52183.91;4993397;28;20070;-70
2022/08/11 07:52:31;;;;;;;2.38;1.60;;;;;;;-140.72;100.00;52183.91;4994965;28;20564;-67
2022/08/11 07:54:59;;;;;;;2.30;1.55;;;;;;;-140.72;100.00;52175.78;4996262;28;20112;-69
2022/08/11 08:19:26;;;;;;;2.30;1.38;;;;;;;-140.72;100.00;52078.38;4994702;28;20093;-68
2022/08/11 08:21:52;;;;;;;1.70;1.23;;;;;;;-140.72;55.39;52072.31;4993536;28;20935;-68
2022/08/11 08:24:19;;;;;;;2.47;1.33;;;;;;;-140.72;11.94;52058.09;4993610;28;20041;-67
2022/08/11 08:26:59;;;;;;;2.78;1.48;;;;;;;-140.72;0.00;52043.91;4993403;28;20035;-68
2022/08/11 08:32:18;;;;;;;1.58;1.23;;;;;;;-140.72;0.00;52064.19;4992833;28;20122;-67
2022/08/11 08:34:45;;;;;;;2.17;1.27;;;;;;;-140.72;0.00;52027.66;4993495;28;20042;-70
2022/08/11 08:37:10;;;;;;;2.90;1.30;;;;;;;-140.72;0.00;51997.22;4996051;28;20027;-69
2022/08/11 08:39:37;;;;;;;3.88;1.20;;;;;;;-140.72;0.00;51997.22;4993934;28;20052;-69
2022/08/11 08:42:11;;;;;;;5.60;0.90;;;;;;;-140.72;0.00;51993.19;4993462;28;20037;-69
2022/08/11 08:44:41;;;;;;;2.47;1.10;;;;;;;-140.72;0.00;51960.72;4993892;28;20022;-69
2022/08/11 08:47:11;;;;;;;1.63;0.95;;;;;;;-140.72;0.00;51944.47;4992049;28;20023;-68
2022/08/11 08:49:40;;;;;;;1.85;1.10;;;;;;;-140.72;0.00;51960.72;4993573;28;20018;-69
2022/08/11 08:52:08;;;;;;;2.22;1.23;;;;;;;-140.72;0.00;51983.03;4993391;28;20121;-68
2022/08/11 08:54:36;;;;;;;1.90;0.85;;;;;;;-140.72;0.00;51857.25;4997360;28;20027;-68
2022/08/11 08:57:05;;;;;;;2.42;1.15;;;;;;;-140.72;0.00;51869.41;5003600;28;20026;-69
2022/08/11 08:59:35;;;;;;;1.38;0.80;;;;;;;-140.72;0.00;51881.59;4996864;28;20040;-68
2022/08/11 09:02:03;;;;;;;1.83;0.82;;;;;;;-140.72;0.00;51926.22;4996417;28;20084;-68
2022/08/11 09:04:30;;;;;;;1.40;0.90;;;;;;;-140.72;0.00;51863.31;5011686;28;20061;-68
2022/08/11 09:07:11;;;;;;;2.97;1.00;;;;;;;-140.72;0.00;51830.88;4997610;28;20033;-69
2022/08/11 09:09:41;;;;;;;1.42;0.90;;;;;;;-140.72;0.00;51838.97;4987073;28;20033;-69
2022/08/11 09:12:07;;;;;;;1.92;0.98;;;;;;;-140.72;0.00;51818.69;4997038;28;20100;-68
2022/08/11 09:17:22;;;;;;;2.15;1.00;;;;;;;-140.72;0.00;51759.84;4996789;28;20051;-68
2022/08/11 09:19:57;;;;;;;2.08;0.95;;;;;;;-140.72;0.00;51761.88;4997872;28;20046;-69
2022/08/11 09:27:55;;;;;;;2.05;0.90;;;;;;;-140.72;0.00;51696.97;4996330;28;20053;-70
2022/08/11 09:30:24;;;;;;;1.13;0.68;;;;;;;-140.72;0.00;51692.91;4997172;28;20024;-70
2022/08/11 09:32:57;;;;;;;1.48;0.70;;;;;;;-140.72;0.00;51715.22;5012424;28;20109;-68
2022/08/11 09:35:27;;;;;;;1.30;0.60;;;;;;;-140.72;0.00;51672.63;4997181;28;20058;-69
2022/08/11 09:40:46;;;;;;;0.93;0.63;;;;;;;-140.72;0.00;51666.53;4997730;28;20560;-70
2022/08/11 09:45:59;;;;;;;2.35;0.68;;;;;;;-140.72;0.00;51634.06;4997848;28;20136;-69
2022/08/11 09:48:28;;;;;;;1.85;0.60;;;;;;;-140.72;0.00;51603.63;4998468;28;20129;-68
2022/08/11 09:50:55;;;;;;;0.73;0.52;;;;;;;-140.72;0.00;51607.69;4999970;28;20494;-69
2022/08/11 09:53:24;;;;;;;4.33;0.70;;;;;;;-140.72;0.00;51577.28;4996491;28;20022;-68
2022/08/11 09:55:50;;;;;;;4.45;0.75;;;;;;;-140.72;0.00;51559.00;4995018;28;20113;-71
2022/08/11 09:58:16;;;;;;;1.48;0.75;;;;;;;-140.72;0.00;51512.34;4998233;28;20144;-70
2022/08/11 10:00:44;;;;;;;1.20;0.73;;;;;;;-140.72;0.00;51510.31;4996420;28;20401;-72
2022/08/11 10:03:24;;;;;;;0.93;0.43;;;;;;;-140.72;0.00;51508.28;4998618;28;20053;-70
2022/08/11 10:08:44;;;;;;;3.40;0.70;;;;;;;-140.72;0.00;51504.25;4998786;28;20038;-70
2022/08/11 10:11:17;;;;;;;0.95;0.60;;;;;;;-140.72;0.00;51457.56;4995241;28;20038;-69
2022/08/11 10:16:40;;;;;;;1.02;0.60;;;;;;;-140.72;0.00;51467.72;4958684;28;20027;-70
2022/08/11 10:19:08;;;;;;;6.18;0.77;;;;;;;-140.72;0.00;51398.75;4997304;28;20417;-69
2022/08/11 10:27:16;;;;;;;1.40;0.60;;;;;;;-140.72;0.00;51396.72;5001204;28;20507;-69
2022/08/11 10:35:17;;;;;;;0.90;0.60;;;;;;;-140.72;0.00;51354.13;4997322;28;20052;-69
2022/08/11 10:37:45;;;;;;;1.43;0.70;;;;;;;-140.72;0.00;51380.50;4998648;28;20030;-69
2022/08/11 10:40:17;;;;;;;2.25;0.88;;;;;;;-140.72;0.00;51394.69;5000310;28;20112;-70
2022/08/11 10:48:14;;;;;;;1.13;0.60;;;;;;;-140.72;0.00;51356.16;4993979;28;20068;-71
2022/08/11 10:58:58;;;;;;;2.05;0.60;;;;;;;-140.72;0.00;51335.88;4999397;28;20259;-69
2022/08/11 11:01:27;;;;;;;2.22;0.43;;;;;;;-140.72;0.00;51283.13;5005477;28;20058;-71
2022/08/11 11:04:12;;;;;;;1.05;0.60;;;;;;;-140.72;0.00;51272.97;5000593;28;20084;-70
2022/08/11 11:06:56;;;;;;;1.13;0.45;;;;;;;-140.72;0.00;51222.25;4992864;28;20497;-71
2022/08/11 11:09:31;;;;;;;1.35;0.70;;;;;;;-140.72;0.00;51266.88;4997145;28;20026;-73
2022/08/11 11:17:55;;;;;;;0.50;0.30;;;;;;;-140.72;0.00;51230.38;4997262;28;20077;-70
2022/08/11 11:20:42;;;;;;;3.45;0.50;;;;;;;-140.72;0.00;51181.69;4998159;28;20474;-70
2022/08/11 11:23:21;;;;;;;0.50;0.20;;;;;;;-140.72;0.00;51242.53;4988753;28;20046;-69
2022/08/11 11:26:18;;;;;;;2.17;0.60;;;;;;;-140.72;0.00;51165.47;5011732;28;20030;-69
2022/08/11 11:29:02;;;;;;;;;;;;;;;-140.72;0.00;51204.00;4994717;28;20108;-68
2022/08/11 11:31:52;;;;;;;2.53;0.65;;;;;;;-140.72;0.00;51177.63;4996363;28;20393;-69
2022/08/11 11:34:57;;;;;;;1.00;0.40;;;;;;;-140.72;0.00;51177.63;4994443;28;20054;-69
2022/08/11 11:37:23;;;;;;;0.60;0.38;;;;;;;-140.72;0.00;51177.63;4997661;28;20026;-71
2022/08/11 11:39:49;;;;;;;4.00;0.50;;;;;;;-140.72;0.00;51197.91;5003328;28;20026;-71
2022/08/11 11:42:17;;;;;;;2.13;0.30;;;;;;;-140.72;0.00;51177.63;4997907;28;20135;-71
2022/08/11 11:44:44;;;;;;;0.73;0.38;;;;;;;-140.72;0.00;51175.59;4994662;28;20033;-68
2022/08/11 11:47:11;;;;;;;0.60;0.20;;;;;;;-140.72;0.00;51135.03;4994474;28;20161;-67
2022/08/11 11:49:41;;;;;;;0.60;0.30;;;;;;;-140.72;0.00;51147.22;4995021;28;20037;-67
2022/08/11 11:52:12;;;;;;;1.83;0.40;;;;;;;-140.72;0.00;51116.78;4995704;28;20026;-70
2022/08/11 11:54:39;;;;;;;0.65;0.47;;;;;;;-140.72;0.00;51161.41;4999115;28;20105;-67
2022/08/11 12:01:14;;;;;;;2.92;0.45;;;;;;;-140.72;0.00;51155.31;4993359;28;20026;-68
2022/08/11 12:02:41;;;;;;;1.05;0.50;;;;;;;-140.72;0.00;51098.53;4990697;28;20521;-68
2022/08/11 12:05:09;;;;;;;0.93;0.22;;;;;;;-140.72;0.00;51076.22;5008055;28;20018;-68
2022/08/11 12:10:19;;;;;;;3.65;0.50;;;;;;;-140.72;0.00;51088.38;4993604;28;19937;-68
2022/08/11 12:15:30;;;;;;;0.50;0.35;;;;;;;-140.72;0.00;51104.59;4990857;28;20037;-67
2022/08/11 12:17:57;;;;;;;0.47;0.30;;;;;;;-140.72;0.00;51059.97;4993611;28;20089;-67
2022/08/11 12:20:23;;;;;;;0.82;0.30;;;;;;;-140.72;0.00;51088.38;4987497;28;20038;-68
2022/08/11 12:28:21;;;;;;;2.35;0.52;;;;;;;-140.72;0.00;51080.28;4986353;28;20674;-66
2022/08/11 12:30:48;;;;;;;1.10;0.40;;;;;;;-140.72;0.00;51153.28;4997296;28;20581;-67
2022/08/11 12:33:14;;;;;;;0.65;0.40;;;;;;;-140.72;0.00;51084.31;4997178;28;20037;-66
2022/08/11 12:35:40;;;;;;;0.90;0.50;;;;;;;-140.72;0.00;51080.28;4997364;28;20050;-67
2022/08/11 12:38:08;;;;;;;1.67;0.50;;;;;;;-140.72;0.00;51090.41;4997136;28;20169;-69
2022/08/11 12:46:18;;;;;;;0.60;0.35;;;;;;;-140.72;0.00;51043.75;4992070;28;19924;-68
2022/08/11 12:52:03;;;;;;;0.75;0.30;;;;;;;-140.72;0.00;51068.09;4996887;28;20099;-67
2022/08/11 12:54:50;;;;;;;3.15;0.40;;;;;;;-140.72;0.00;51051.88;5005261;28;20026;-69
2022/08/11 13:05:41;;;;;;;0.95;0.50;;;;;;;-140.72;0.00;51092.44;4996656;28;20041;-67
2022/08/11 13:08:07;;;;;;;0.55;0.22;;;;;;;-140.72;0.00;51066.06;4996594;28;20061;-67
2022/08/11 13:13:19;;;;;;;1.40;0.43;;;;;;;-140.72;0.00;51124.91;4996750;28;20473;-68
2022/08/11 13:15:46;;;;;;;1.42;0.32;;;;;;;-140.72;0.00;51108.66;4992579;28;20049;-69
2022/08/11 13:18:16;;;;;;;1.63;0.60;;;;;;;-140.72;0.00;51173.56;4996445;28;20030;-67
2022/08/11 13:20:44;;;;;;;0.82;0.30;;;;;;;-140.72;0.00;51173.56;4996594;28;20485;-68
2022/08/11 13:23:12;;;;;;;1.13;0.40;;;;;;;-140.72;0.00;51206.03;4995976;28;20030;-68
2022/08/11 13:25:38;;;;;;;0.77;0.40;;;;;;;-140.72;0.00;51191.84;4996602;28;20496;-67
2022/08/11 13:28:04;;;;;;;0.50;0.30;;;;;;;-140.72;0.00;51236.47;4996265;28;20101;-69
2022/08/11 13:33:16;;;;;;;0.30;0.20;;;;;;;-140.72;0.00;51339.91;4996268;28;20104;-68
2022/08/11 13:35:44;;;;;;;0.20;0.13;;;;;;;-140.72;0.00;51441.34;4996523;28;20387;-70
2022/08/11 13:38:12;;;;;;;0.70;0.40;;;;;;;-140.72;0.00;51457.56;4997460;28;20179;-69
2022/08/11 13:40:39;;;;;;;0.45;0.20;;;;;;;-140.72;0.00;51512.34;4999423;28;20019;-67
2022/08/11 13:43:05;;;;;;;0.95;0.40;;;;;;;-140.72;0.00;51520.47;4997549;28;20110;-67
2022/08/11 13:45:32;;;;;;;1.15;0.40;;;;;;;-140.72;0.00;51530.59;4996957;28;20485;-68
2022/08/11 13:47:59;;;;;;;2.92;0.60;;;;;;;-140.72;0.00;51542.78;5007262;28;20030;-67
2022/08/11 13:51:29;;;;;;;0.98;0.40;;;;;;;-140.72;0.00;51577.28;4996379;28;20522;-66
2022/08/11 13:53:15;;;;;;;1.25;0.50;;;;;;;-140.72;0.00;51556.97;4995995;28;20173;-68
2022/08/11 13:55:42;;;;;;;2.08;0.57;;;;;;;-140.72;0.00;51607.69;4996627;28;20046;-70
2022/08/11 13:58:11;;;;;;;1.55;0.60;;;;;;;-140.72;0.00;51567.13;4995663;28;20041;-70
2022/08/11 14:00:37;;;;;;;0.88;0.47;;;;;;;-140.72;0.00;51575.25;4997267;28;20045;-70
2022/08/11 14:03:07;;;;;;;1.35;0.60;;;;;;;-140.72;0.00;51634.06;4996407;28;20417;-67
2022/08/11 14:05:38;;;;;;;0.95;0.52;;;;;;;-140.72;0.00;51619.88;4996444;28;20495;-67
2022/08/11 14:08:11;;;;;;;1.08;0.55;;;;;;;-140.72;0.00;51636.09;4996598;28;20474;-68
2022/08/11 14:10:38;;;;;;;1.35;0.47;;;;;;;-140.72;0.00;51640.16;4996167;28;20382;-68
2022/08/11 14:16:01;;;;;;;0.73;0.52;;;;;;;-140.72;0.00;51701.03;4988497;28;20057;-67
2022/08/11 14:18:29;;;;;;;3.85;0.68;;;;;;;-140.72;0.00;51688.84;4995631;28;20124;-68
2022/08/11 14:23:46;;;;;;;1.85;0.80;;;;;;;-140.72;0.00;51694.94;4996529;28;20049;-68
2022/08/11 14:26:23;;;;;;;0.65;0.40;;;;;;;-140.72;0.00;51678.72;4995752;28;20027;-68
2022/08/11 14:29:01;;;;;;;1.45;0.70;;;;;;;-140.72;0.00;51686.81;4997742;28;20027;-64
2022/08/11 14:31:28;;;;;;;4.00;0.60;;;;;;;-140.72;0.00;51670.59;5001541;28;20026;-69
2022/08/11 14:33:55;;;;;;;1.00;0.60;;;;;;;-140.72;0.00;51701.03;4999627;28;20469;-70
2022/08/11 14:36:27;;;;;;;2.42;0.90;;;;;;;-140.72;0.00;51713.19;5000840;28;20030;-71
2022/08/11 14:38:54;;;;;;;1.65;0.60;;;;;;;-140.72;0.00;51701.03;4998240;28;20453;-70
2022/08/11 14:47:04;;;;;;;1.17;0.65;;;;;;;-140.72;0.00;51701.03;5004102;28;20054;-67
2022/08/11 14:49:33;;;;;;;0.83;0.53;;;;;;;-140.72;0.00;51727.41;4996127;28;20034;-67
2022/08/11 14:52:00;;;;;;;;;;;;;;;-140.72;0.00;51699.00;5023938;28;20131;-69
2022/08/11 14:57:12;;;;;;;11.50;0.90;;;;;;;-140.72;0.00;51735.50;5001537;28;20092;-69
2022/08/11 14:59:38;;;;;;;1.30;0.63;;;;;;;-140.72;0.00;51739.56;5001580;28;20121;-67
2022/08/11 15:04:50;;;;;;;5.18;0.80;;;;;;;-140.72;0.00;51727.41;5002198;28;20060;-69
2022/08/11 15:07:16;;;;;;;1.48;0.88;;;;;;;-140.72;0.00;51723.34;5001049;28;20034;-68
2022/08/11 15:09:43;;;;;;;1.55;0.95;;;;;;;-140.72;0.00;51717.25;5009709;28;20101;-68
2022/08/11 15:12:17;;;;;;;1.50;0.52;;;;;;;-140.72;0.00;51765.94;5000743;28;20026;-69
2022/08/11 15:17:34;;;;;;;1.30;0.40;;;;;;;-140.72;0.00;51707.09;4999519;28;20089;-69
2022/08/11 15:25:35;;;;;;;1.85;0.50;;;;;;;-140.72;0.00;51753.78;4994592;28;20048;-69
2022/08/11 15:39:22;;;;;;;3.22;1.65;;;;;;;-140.72;0.00;51737.53;4995004;28;20058;-72
2022/08/11 15:51:32;;;;;;;1.30;0.50;;;;;;;-140.72;0.00;51761.88;4994938;28;20140;-72
2022/08/11 15:54:00;;;;;;;1.70;0.50;;;;;;;-140.72;0.00;51743.63;4993889;28;20085;-72
2022/08/11 15:56:29;;;;;;;2.25;0.70;;;;;;;-140.72;0.00;51749.72;4999141;28;20038;-73
2022/08/11 16:04:31;;;;;;;1.27;0.50;;;;;;;-140.72;0.00;51761.88;4992627;28;20056;-72
2022/08/11 16:06:56;;;;;;;1.45;0.40;;;;;;;-140.72;0.00;51745.66;4987589;28;20018;-72
2022/08/11 16:09:28;;;;;;;0.90;0.57;;;;;;;-140.72;0.00;51755.81;5008651;28;20027;-72
2022/08/11 16:11:59;;;;;;;0.90;0.60;;;;;;;-140.72;0.00;51755.81;4993334;28;20034;-71
2022/08/11 16:17:14;;;;;;;1.33;0.60;;;;;;;-140.72;0.00;51774.06;4994916;28;20065;-75
2022/08/11 16:19:41;;;;;;;1.00;0.52;;;;;;;-140.72;0.00;51725.38;5007452;28;20109;-73
2022/08/11 16:22:37;;;;;;;0.73;0.50;;;;;;;-140.72;0.00;51757.81;4993939;28;20154;-73
2022/08/11 16:25:07;;;;;;;1.08;0.38;;;;;;;-140.72;0.00;51731.44;4990929;28;20105;-72
2022/08/11 16:27:39;;;;;;;1.38;0.70;;;;;;;-140.72;0.00;51717.25;5006410;28;20037;-76
2022/08/11 16:30:07;;;;;;;0.98;0.50;;;;;;;-140.72;0.00;51595.53;4997002;28;20034;-73
2022/08/11 16:32:35;;;;;;;1.02;0.52;;;;;;;-140.72;0.00;51544.81;5012380;28;20346;-72
2022/08/11 16:40:42;;;;;;;0.73;0.45;;;;;;;-140.72;0.00;51492.06;4999141;28;20057;-76
2022/08/11 16:48:45;;;;;;;1.15;0.50;;;;;;;-140.72;0.00;51404.84;4993990;28;20201;-75
2022/08/11 16:51:12;;;;;;;2.38;0.88;;;;;;;-140.72;0.00;51372.38;5012658;28;20077;-74
2022/08/11 16:53:39;;;;;;;1.00;0.40;;;;;;;-140.72;0.00;51335.88;4993954;28;20025;-75
2022/08/11 16:56:07;;;;;;;0.80;0.45;;;;;;;-140.72;0.00;51329.78;5011109;28;20026;-75
2022/08/11 17:01:23;;;;;;;0.68;0.30;;;;;;;-140.72;0.00;51305.44;4993890;28;20050;-76
2022/08/11 17:16:05;;;;;;;4.75;0.60;;;;;;;-140.72;0.00;51567.13;5000056;28;20284;-73
2022/08/11 17:18:00;;;;;;;2.45;0.52;;;;;;;-140.72;0.00;51617.84;5000564;28;20042;-73